sensor_id;sensor_type;location;lat;lon;timestamp;pressure;altitude;pressure_sealevel;temperature;humidity
76594;BME280;65482;50.240;14.302;2024-01-11T00:00:59;100979.19;;;-9.34;68.07
76594;BME280;65482;50.240;14.302;2024-01-11T00:03:37;100989.41;;;-9.34;68.26
76594;BME280;65482;50.240;14.302;2024-01-11T00:06:03;100984.28;;;-9.36;67.95
76594;BME280;65482;50.240;14.302;2024-01-11T00:08:29;100987.72;;;-9.38;68.13
76594;BME280;65482;50.240;14.302;2024-01-11T00:10:55;100985.16;;;-9.38;68.17
76594;BME280;65482;50.240;14.302;2024-01-11T00:13:21;100978.31;;;-9.41;68.09
76594;BME280;65482;50.240;14.302;2024-01-11T00:15:46;100984.28;;;-9.42;68.21
76594;BME280;65482;50.240;14.302;2024-01-11T00:18:12;100987.72;;;-9.45;68.16
76594;BME280;65482;50.240;14.302;2024-01-11T00:20:38;100984.28;;;-9.45;68.25
76594;BME280;65482;50.240;14.302;2024-01-11T00:23:03;100984.28;;;-9.48;68.19
76594;BME280;65482;50.240;14.302;2024-01-11T00:25:29;100984.28;;;-9.48;68.19
76594;BME280;65482;50.240;14.302;2024-01-11T00:27:54;100975.78;;;-9.49;68.36
76594;BME280;65482;50.240;14.302;2024-01-11T00:30:20;100976.63;;;-9.50;68.08
76594;BME280;65482;50.240;14.302;2024-01-11T00:32:45;100977.47;;;-9.49;68.20
76594;BME280;65482;50.240;14.302;2024-01-11T00:35:11;100971.50;;;-9.53;67.97
76594;BME280;65482;50.240;14.302;2024-01-11T00:37:36;100972.34;;;-9.55;68.05
76594;BME280;65482;50.240;14.302;2024-01-11T00:40:02;100974.06;;;-9.57;68.32
76594;BME280;65482;50.240;14.302;2024-01-11T00:42:28;100983.44;;;-9.56;68.02
76594;BME280;65482;50.240;14.302;2024-01-11T00:44:53;100974.91;;;-9.57;68.19
76594;BME280;65482;50.240;14.302;2024-01-11T00:47:19;100973.19;;;-9.58;68.24
76594;BME280;65482;50.240;14.302;2024-01-11T00:49:45;100968.94;;;-9.59;68.30
76594;BME280;65482;50.240;14.302;2024-01-11T00:52:10;100960.44;;;-9.60;68.00
76594;BME280;65482;50.240;14.302;2024-01-11T00:54:39;100960.44;;;-9.60;68.23
76594;BME280;65482;50.240;14.302;2024-01-11T00:57:05;100959.59;;;-9.60;67.95
76594;BME280;65482;50.240;14.302;2024-01-11T00:59:30;100955.31;;;-9.61;68.13
76594;BME280;65482;50.240;14.302;2024-01-11T01:01:56;100946.81;;;-9.62;68.21
76594;BME280;65482;50.240;14.302;2024-01-11T01:04:21;100950.22;;;-9.63;68.03
76594;BME280;65482;50.240;14.302;2024-01-11T01:06:47;100953.59;;;-9.65;67.83
76594;BME280;65482;50.240;14.302;2024-01-11T01:09:13;100957.88;;;-9.66;67.82
76594;BME280;65482;50.240;14.302;2024-01-11T01:11:38;100952.75;;;-9.69;67.99
76594;BME280;65482;50.240;14.302;2024-01-11T01:14:04;100952.75;;;-9.70;68.25
76594;BME280;65482;50.240;14.302;2024-01-11T01:16:30;100950.22;;;-9.70;68.04
76594;BME280;65482;50.240;14.302;2024-01-11T01:18:56;100948.47;;;-9.73;67.84
76594;BME280;65482;50.240;14.302;2024-01-11T01:21:21;100949.34;;;-9.72;67.99
76594;BME280;65482;50.240;14.302;2024-01-11T01:23:47;100948.47;;;-9.73;67.81
76594;BME280;65482;50.240;14.302;2024-01-11T01:26:12;100948.47;;;-9.73;67.95
76594;BME280;65482;50.240;14.302;2024-01-11T01:28:38;100952.72;;;-9.75;67.89
76594;BME280;65482;50.240;14.302;2024-01-11T01:31:05;100946.78;;;-9.77;67.93
76594;BME280;65482;50.240;14.302;2024-01-11T01:33:31;100948.47;;;-9.77;68.10
76594;BME280;65482;50.240;14.302;2024-01-11T01:35:56;100951.88;;;-9.80;67.92
76594;BME280;65482;50.240;14.302;2024-01-11T01:38:23;100945.94;;;-9.82;67.95
76594;BME280;65482;50.240;14.302;2024-01-11T01:40:48;100951.88;;;-9.82;67.89
76594;BME280;65482;50.240;14.302;2024-01-11T01:43:14;100943.34;;;-9.85;68.00
76594;BME280;65482;50.240;14.302;2024-01-11T01:45:40;100946.78;;;-9.85;68.21
76594;BME280;65482;50.240;14.302;2024-01-11T01:48:06;100941.69;;;-9.85;68.29
76594;BME280;65482;50.240;14.302;2024-01-11T01:50:32;100934.84;;;-9.86;68.29
76594;BME280;65482;50.240;14.302;2024-01-11T01:52:58;100939.97;;;-9.86;68.16
76594;BME280;65482;50.240;14.302;2024-01-11T01:55:25;100928.03;;;-9.88;68.18
76594;BME280;65482;50.240;14.302;2024-01-11T01:57:53;100931.44;;;-9.88;68.42
76594;BME280;65482;50.240;14.302;2024-01-11T02:00:19;100917.81;;;-9.90;68.27
76594;BME280;65482;50.240;14.302;2024-01-11T02:02:46;100916.09;;;-9.91;67.96
76594;BME280;65482;50.240;14.302;2024-01-11T02:05:16;100914.41;;;-9.92;68.00
76594;BME280;65482;50.240;14.302;2024-01-11T02:07:43;100913.56;;;-9.94;67.90
76594;BME280;65482;50.240;14.302;2024-01-11T02:10:09;100907.63;;;-9.94;68.05
76594;BME280;65482;50.240;14.302;2024-01-11T02:12:35;100902.50;;;-9.96;67.73
76594;BME280;65482;50.240;14.302;2024-01-11T02:15:03;100903.34;;;-9.97;68.10
76594;BME280;65482;50.240;14.302;2024-01-11T02:17:30;100905.88;;;-9.97;67.52
76594;BME280;65482;50.240;14.302;2024-01-11T02:19:56;100899.09;;;-9.98;67.90
76594;BME280;65482;50.240;14.302;2024-01-11T02:22:28;100898.25;;;-9.98;67.95
76594;BME280;65482;50.240;14.302;2024-01-11T02:24:54;100897.41;;;-10.01;67.70
76594;BME280;65482;50.240;14.302;2024-01-11T02:27:20;100905.06;;;-10.01;67.72
76594;BME280;65482;50.240;14.302;2024-01-11T02:29:45;100907.59;;;-10.01;67.77
76594;BME280;65482;50.240;14.302;2024-01-11T02:32:11;100899.94;;;-10.02;67.95
76594;BME280;65482;50.240;14.302;2024-01-11T02:34:37;100900.78;;;-10.02;67.93
76594;BME280;65482;50.240;14.302;2024-01-11T02:37:04;100905.88;;;-10.03;67.81
76594;BME280;65482;50.240;14.302;2024-01-11T02:39:30;100903.31;;;-10.03;67.64
76594;BME280;65482;50.240;14.302;2024-01-11T02:41:57;100912.69;;;-10.05;67.46
76594;BME280;65482;50.240;14.302;2024-01-11T02:44:25;100914.38;;;-10.07;67.24
76594;BME280;65482;50.240;14.302;2024-01-11T02:46:51;100907.59;;;-10.08;67.74
76594;BME280;65482;50.240;14.302;2024-01-11T02:49:17;100909.28;;;-10.07;67.84
76594;BME280;65482;50.240;14.302;2024-01-11T02:51:42;100920.34;;;-10.08;67.88
76594;BME280;65482;50.240;14.302;2024-01-11T02:54:08;100927.13;;;-10.07;67.25
76594;BME280;65482;50.240;14.302;2024-01-11T02:56:33;100921.19;;;-10.12;67.43
76594;BME280;65482;50.240;14.302;2024-01-11T02:58:59;100920.34;;;-10.14;67.54
76594;BME280;65482;50.240;14.302;2024-01-11T03:01:25;100925.41;;;-10.19;67.53
76594;BME280;65482;50.240;14.302;2024-01-11T03:03:51;100919.44;;;-10.26;67.82
76594;BME280;65482;50.240;14.302;2024-01-11T03:06:16;100917.75;;;-10.28;68.15
76594;BME280;65482;50.240;14.302;2024-01-11T03:08:49;100906.66;;;-10.29;68.05
76594;BME280;65482;50.240;14.302;2024-01-11T03:11:15;100906.66;;;-10.27;68.29
76594;BME280;65482;50.240;14.302;2024-01-11T03:13:41;100901.56;;;-10.27;68.33
76594;BME280;65482;50.240;14.302;2024-01-11T03:16:07;100909.22;;;-10.29;67.86
76594;BME280;65482;50.240;14.302;2024-01-11T03:18:32;100904.09;;;-10.29;67.58
76594;BME280;65482;50.240;14.302;2024-01-11T03:20:58;100902.44;;;-10.28;67.81
76594;BME280;65482;50.240;14.302;2024-01-11T03:23:24;100905.00;;;-10.30;67.80
76594;BME280;65482;50.240;14.302;2024-01-11T03:25:50;100908.38;;;-10.31;67.60
76594;BME280;65482;50.240;14.302;2024-01-11T03:28:15;100915.19;;;-10.31;67.58
76594;BME280;65482;50.240;14.302;2024-01-11T03:30:41;100916.06;;;-10.32;67.64
76594;BME280;65482;50.240;14.302;2024-01-11T03:33:06;100914.34;;;-10.33;67.64
76594;BME280;65482;50.240;14.302;2024-01-11T03:35:32;100916.03;;;-10.34;67.73
76594;BME280;65482;50.240;14.302;2024-01-11T03:37:57;100907.53;;;-10.33;67.77
76594;BME280;65482;50.240;14.302;2024-01-11T03:40:23;100905.84;;;-10.32;67.86
76594;BME280;65482;50.240;14.302;2024-01-11T03:42:49;100900.72;;;-10.31;67.35
76594;BME280;65482;50.240;14.302;2024-01-11T03:45:17;100903.31;;;-10.32;67.66
76594;BME280;65482;50.240;14.302;2024-01-11T03:47:44;100907.53;;;-10.33;67.57
76594;BME280;65482;50.240;14.302;2024-01-11T03:50:10;100918.59;;;-10.32;67.69
76594;BME280;65482;50.240;14.302;2024-01-11T03:52:35;100916.88;;;-10.35;67.62
76594;BME280;65482;50.240;14.302;2024-01-11T03:55:01;100918.56;;;-10.37;67.50
76594;BME280;65482;50.240;14.302;2024-01-11T03:57:27;100925.38;;;-10.37;67.63
76594;BME280;65482;50.240;14.302;2024-01-11T03:59:52;100932.16;;;-10.36;67.55
76594;BME280;65482;50.240;14.302;2024-01-11T04:02:19;100925.41;;;-10.36;67.71
76594;BME280;65482;50.240;14.302;2024-01-11T04:04:44;100921.97;;;-10.39;67.57
76594;BME280;65482;50.240;14.302;2024-01-11T04:07:10;100926.19;;;-10.43;67.87
76594;BME280;65482;50.240;14.302;2024-01-11T04:09:39;100921.09;;;-10.46;67.46
76594;BME280;65482;50.240;14.302;2024-01-11T04:12:05;100927.03;;;-10.49;67.55
76594;BME280;65482;50.240;14.302;2024-01-11T04:14:31;100927.03;;;-10.47;67.97
76594;BME280;65482;50.240;14.302;2024-01-11T04:16:57;100924.50;;;-10.47;67.64
76594;BME280;65482;50.240;14.302;2024-01-11T04:19:23;100916.84;;;-10.47;67.48
76594;BME280;65482;50.240;14.302;2024-01-11T04:21:48;100927.06;;;-10.46;67.74
76594;BME280;65482;50.240;14.302;2024-01-11T04:24:14;100932.97;;;-10.47;67.42
76594;BME280;65482;50.240;14.302;2024-01-11T04:26:40;100916.88;;;-10.44;67.45
76594;BME280;65482;50.240;14.302;2024-01-11T04:29:05;100899.00;;;-10.46;67.48
76594;BME280;65482;50.240;14.302;2024-01-11T04:31:31;100896.44;;;-10.46;67.50
76594;BME280;65482;50.240;14.302;2024-01-11T04:33:57;100890.50;;;-10.46;67.58
76594;BME280;65482;50.240;14.302;2024-01-11T04:36:22;100884.53;;;-10.48;67.49
76594;BME280;65482;50.240;14.302;2024-01-11T04:38:48;100891.34;;;-10.50;67.11
76594;BME280;65482;50.240;14.302;2024-01-11T04:41:15;100886.22;;;-10.52;67.14
76594;BME280;65482;50.240;14.302;2024-01-11T04:43:42;100886.22;;;-10.53;67.37
76594;BME280;65482;50.240;14.302;2024-01-11T04:46:17;100887.91;;;-10.52;67.35
76594;BME280;65482;50.240;14.302;2024-01-11T04:48:43;100886.22;;;-10.52;67.42
76594;BME280;65482;50.240;14.302;2024-01-11T04:51:09;100876.03;;;-10.52;67.44
76594;BME280;65482;50.240;14.302;2024-01-11T04:53:37;100876.03;;;-10.50;67.01
76594;BME280;65482;50.240;14.302;2024-01-11T04:56:02;100881.97;;;-10.51;67.29
76594;BME280;65482;50.240;14.302;2024-01-11T04:58:28;100880.25;;;-10.54;67.07
76594;BME280;65482;50.240;14.302;2024-01-11T05:00:54;100884.50;;;-10.54;67.24
76594;BME280;65482;50.240;14.302;2024-01-11T05:03:19;100902.34;;;-10.54;67.02
76594;BME280;65482;50.240;14.302;2024-01-11T05:05:45;100885.34;;;-10.57;66.75
76594;BME280;65482;50.240;14.302;2024-01-11T05:08:10;100898.09;;;-10.57;67.13
76594;BME280;65482;50.240;14.302;2024-01-11T05:10:36;100898.94;;;-10.56;67.30
76594;BME280;65482;50.240;14.302;2024-01-11T05:13:02;100894.72;;;-10.56;67.25
76594;BME280;65482;50.240;14.302;2024-01-11T05:15:27;100888.75;;;-10.55;67.33
76594;BME280;65482;50.240;14.302;2024-01-11T05:17:55;100876.84;;;-10.54;67.46
76594;BME280;65482;50.240;14.302;2024-01-11T05:20:21;100888.75;;;-10.55;67.30
76594;BME280;65482;50.240;14.302;2024-01-11T05:22:47;100898.09;;;-10.55;67.18
76594;BME280;65482;50.240;14.302;2024-01-11T05:25:12;100884.50;;;-10.56;67.26
76594;BME280;65482;50.240;14.302;2024-01-11T05:27:38;100886.22;;;-10.53;67.65
76594;BME280;65482;50.240;14.302;2024-01-11T05:30:03;100895.56;;;-10.55;67.47
76594;BME280;65482;50.240;14.302;2024-01-11T05:32:30;100894.69;;;-10.54;67.24
76594;BME280;65482;50.240;14.302;2024-01-11T05:34:55;100902.34;;;-10.54;67.35
76594;BME280;65482;50.240;14.302;2024-01-11T05:37:21;100893.84;;;-10.56;67.28
76594;BME280;65482;50.240;14.302;2024-01-11T05:39:46;100892.13;;;-10.59;67.11
76594;BME280;65482;50.240;14.302;2024-01-11T05:42:12;100890.44;;;-10.57;67.25
76594;BME280;65482;50.240;14.302;2024-01-11T05:44:37;100893.00;;;-10.57;67.02
76594;BME280;65482;50.240;14.302;2024-01-11T05:47:03;100903.22;;;-10.55;67.20
76594;BME280;65482;50.240;14.302;2024-01-11T05:49:29;100898.97;;;-10.53;66.94
76594;BME280;65482;50.240;14.302;2024-01-11T05:51:55;100898.94;;;-10.56;67.03
76594;BME280;65482;50.240;14.302;2024-01-11T05:54:20;100892.16;;;-10.56;67.29
76594;BME280;65482;50.240;14.302;2024-01-11T05:56:46;100897.25;;;-10.56;67.15
76594;BME280;65482;50.240;14.302;2024-01-11T05:59:11;100894.69;;;-10.54;67.42
76594;BME280;65482;50.240;14.302;2024-01-11T06:01:41;100898.94;;;-10.55;67.24
76594;BME280;65482;50.240;14.302;2024-01-11T06:04:07;100905.72;;;-10.58;67.07
76594;BME280;65482;50.240;14.302;2024-01-11T06:06:33;100915.09;;;-10.57;67.45
76594;BME280;65482;50.240;14.302;2024-01-11T06:08:58;100927.00;;;-10.56;67.59
76594;BME280;65482;50.240;14.302;2024-01-11T06:11:24;100922.75;;;-10.57;67.65
76594;BME280;65482;50.240;14.302;2024-01-11T06:13:49;100919.34;;;-10.59;67.48
76594;BME280;65482;50.240;14.302;2024-01-11T06:16:15;100925.28;;;-10.61;67.31
76594;BME280;65482;50.240;14.302;2024-01-11T06:18:41;100900.66;;;-10.60;67.51
76594;BME280;65482;50.240;14.302;2024-01-11T06:21:06;100916.78;;;-10.59;67.72
76594;BME280;65482;50.240;14.302;2024-01-11T06:23:32;100924.44;;;-10.59;67.29
76594;BME280;65482;50.240;14.302;2024-01-11T06:25:57;100931.25;;;-10.57;67.26
76594;BME280;65482;50.240;14.302;2024-01-11T06:28:23;100932.94;;;-10.57;67.28
76594;BME280;65482;50.240;14.302;2024-01-11T06:30:48;100911.69;;;-10.59;67.38
76594;BME280;65482;50.240;14.302;2024-01-11T06:33:14;100914.25;;;-10.59;67.13
76594;BME280;65482;50.240;14.302;2024-01-11T06:35:40;100903.19;;;-10.58;67.54
76594;BME280;65482;50.240;14.302;2024-01-11T06:38:05;100912.56;;;-10.56;67.35
76594;BME280;65482;50.240;14.302;2024-01-11T06:40:31;100924.47;;;-10.58;67.20
76594;BME280;65482;50.240;14.302;2024-01-11T06:42:57;100916.81;;;-10.58;67.07
76594;BME280;65482;50.240;14.302;2024-01-11T06:45:23;100911.69;;;-10.56;67.23
76594;BME280;65482;50.240;14.302;2024-01-11T06:47:48;100915.94;;;-10.52;67.48
76594;BME280;65482;50.240;14.302;2024-01-11T06:50:14;100914.28;;;-10.47;67.79
76594;BME280;65482;50.240;14.302;2024-01-11T06:52:51;100919.41;;;-10.43;67.30
76594;BME280;65482;50.240;14.302;2024-01-11T06:56:29;100927.06;;;-10.39;67.42
76594;BME280;65482;50.240;14.302;2024-01-11T06:59:57;100936.44;;;-10.35;67.26
76594;BME280;65482;50.240;14.302;2024-01-11T07:03:27;100922.84;;;-10.31;66.93
76594;BME280;65482;50.240;14.302;2024-01-11T07:05:55;100938.97;;;-10.29;67.03
76594;BME280;65482;50.240;14.302;2024-01-11T07:08:55;100939.88;;;-10.32;66.88
76594;BME280;65482;50.240;14.302;2024-01-11T07:11:50;100939.84;;;-10.35;67.19
76594;BME280;65482;50.240;14.302;2024-01-11T07:15:17;100938.13;;;-10.37;67.15
76594;BME280;65482;50.240;14.302;2024-01-11T07:17:46;100931.38;;;-10.32;67.50
76594;BME280;65482;50.240;14.302;2024-01-11T07:20:15;100934.72;;;-10.27;67.11
76594;BME280;65482;50.240;14.302;2024-01-11T07:22:42;100926.25;;;-10.28;67.25
76594;BME280;65482;50.240;14.302;2024-01-11T07:25:08;100931.34;;;-10.23;67.00
76594;BME280;65482;50.240;14.302;2024-01-11T07:27:33;100931.34;;;-10.22;66.42
76594;BME280;65482;50.240;14.302;2024-01-11T07:30:00;100924.56;;;-10.20;66.53
76594;BME280;65482;50.240;14.302;2024-01-11T07:32:27;100921.16;;;-10.15;66.36
76594;BME280;65482;50.240;14.302;2024-01-11T07:34:53;100908.44;;;-10.08;66.38
76594;BME280;65482;50.240;14.302;2024-01-11T07:37:19;100898.22;;;-9.97;66.45
76594;BME280;65482;50.240;14.302;2024-01-11T07:39:44;100883.78;;;-9.92;66.18
76594;BME280;65482;50.240;14.302;2024-01-11T07:42:13;100871.00;;;-9.89;65.60
76594;BME280;65482;50.240;14.302;2024-01-11T07:44:39;100886.34;;;-9.84;65.47
76594;BME280;65482;50.240;14.302;2024-01-11T07:47:05;100883.78;;;-9.80;65.42
76594;BME280;65482;50.240;14.302;2024-01-11T07:49:31;100877.00;;;-9.70;65.22
76594;BME280;65482;50.240;14.302;2024-01-11T07:51:57;100879.56;;;-9.61;65.32
76594;BME280;65482;50.240;14.302;2024-01-11T07:54:23;100885.50;;;-9.49;64.97
76594;BME280;65482;50.240;14.302;2024-01-11T08:01:26;100871.00;;;-9.15;65.15
76594;BME280;65482;50.240;14.302;2024-01-11T08:09:46;100835.88;;;-8.71;64.90
76594;BME280;65482;50.240;14.302;2024-01-11T08:12:49;100846.91;;;-8.49;65.02
76594;BME280;65482;50.240;14.302;2024-01-11T08:15:33;100868.88;;;-8.17;64.89
76594;BME280;65482;50.240;14.302;2024-01-11T08:42:00;100829.06;;;-5.55;61.19
76594;BME280;65482;50.240;14.302;2024-01-11T08:44:32;100830.75;;;-5.54;61.41
76594;BME280;65482;50.240;14.302;2024-01-11T08:47:04;100842.63;;;-5.47;61.27
76594;BME280;65482;50.240;14.302;2024-01-11T08:49:49;100825.28;;;-5.35;61.71
76594;BME280;65482;50.240;14.302;2024-01-11T08:52:18;100824.25;;;-5.25;61.72
76594;BME280;65482;50.240;14.302;2024-01-11T08:54:44;100841.13;;;-5.10;61.62
76594;BME280;65482;50.240;14.302;2024-01-11T08:57:09;100846.88;;;-4.97;61.47
76594;BME280;65482;50.240;14.302;2024-01-11T08:59:50;100863.06;;;-4.91;60.85
76594;BME280;65482;50.240;14.302;2024-01-11T09:02:16;100859.69;;;-4.94;60.97
76594;BME280;65482;50.240;14.302;2024-01-11T09:04:43;100869.16;;;-4.95;61.24
76594;BME280;65482;50.240;14.302;2024-01-11T09:07:10;100855.19;;;-4.83;61.06
76594;BME280;65482;50.240;14.302;2024-01-11T09:09:36;100849.56;;;-4.60;61.04
76594;BME280;65482;50.240;14.302;2024-01-11T09:12:01;100852.47;;;-4.35;61.11
76594;BME280;65482;50.240;14.302;2024-01-11T09:14:28;100850.75;;;-4.34;60.20
76594;BME280;65482;50.240;14.302;2024-01-11T09:16:53;100865.78;;;-4.16;60.00
76594;BME280;65482;50.240;14.302;2024-01-11T09:19:20;100877.25;;;-3.90;59.69
76594;BME280;65482;50.240;14.302;2024-01-11T09:21:47;100869.75;;;-4.00;59.64
76594;BME280;65482;50.240;14.302;2024-01-11T09:24:13;100852.56;;;-4.01;59.44
76594;BME280;65482;50.240;14.302;2024-01-11T09:26:49;100847.19;;;-3.90;59.48
76594;BME280;65482;50.240;14.302;2024-01-11T09:29:15;100843.88;;;-3.96;59.17
76594;BME280;65482;50.240;14.302;2024-01-11T09:31:42;100844.69;;;-3.94;59.56
76594;BME280;65482;50.240;14.302;2024-01-11T09:34:08;100822.28;;;-3.91;59.25
76594;BME280;65482;50.240;14.302;2024-01-11T09:36:35;100829.84;;;-3.85;58.84
76594;BME280;65482;50.240;14.302;2024-01-11T09:39:05;100855.53;;;-3.80;59.24
76594;BME280;65482;50.240;14.302;2024-01-11T09:41:31;100872.06;;;-3.89;59.05
76594;BME280;65482;50.240;14.302;2024-01-11T09:44:00;100872.91;;;-3.88;59.45
76594;BME280;65482;50.240;14.302;2024-01-11T09:46:27;100869.31;;;-3.45;59.33
76594;BME280;65482;50.240;14.302;2024-01-11T09:49:00;100859.16;;;-3.18;58.34
76594;BME280;65482;50.240;14.302;2024-01-11T09:51:56;100833.63;;;-2.96;57.60
76594;BME280;65482;50.240;14.302;2024-01-11T09:54:34;100830.38;;;-3.03;57.69
76594;BME280;65482;50.240;14.302;2024-01-11T09:57:28;100832.59;;;-2.91;58.29
76594;BME280;65482;50.240;14.302;2024-01-11T10:00:01;100841.97;;;-2.87;57.84
76594;BME280;65482;50.240;14.302;2024-01-11T10:02:29;100859.50;;;-2.98;58.01
76594;BME280;65482;50.240;14.302;2024-01-11T10:04:55;100833.31;;;-2.84;58.01
76594;BME280;65482;50.240;14.302;2024-01-11T10:07:24;100831.88;;;-2.94;57.67
76594;BME280;65482;50.240;14.302;2024-01-11T10:09:51;100824.53;;;-2.78;57.63
76594;BME280;65482;50.240;14.302;2024-01-11T10:12:22;100814.66;;;-2.64;57.28
76594;BME280;65482;50.240;14.302;2024-01-11T10:15:05;100807.47;;;-2.54;57.27
76594;BME280;65482;50.240;14.302;2024-01-11T10:17:32;100803.84;;;-2.49;57.23
76594;BME280;65482;50.240;14.302;2024-01-11T10:20:01;100801.63;;;-2.61;57.14
76594;BME280;65482;50.240;14.302;2024-01-11T10:22:28;100810.91;;;-2.54;57.89
76594;BME280;65482;50.240;14.302;2024-01-11T10:25:13;100822.63;;;-2.42;58.05
76594;BME280;65482;50.240;14.302;2024-01-11T10:30:51;100825.53;;;-2.25;57.01
76594;BME280;65482;50.240;14.302;2024-01-11T10:33:20;100812.63;;;-2.25;57.78
76594;BME280;65482;50.240;14.302;2024-01-11T10:36:05;100814.91;;;-2.15;57.47
76594;BME280;65482;50.240;14.302;2024-01-11T10:38:55;100809.72;;;-2.15;57.35
76594;BME280;65482;50.240;14.302;2024-01-11T10:42:15;100829.53;;;-2.14;58.17
76594;BME280;65482;50.240;14.302;2024-01-11T10:48:26;100826.03;;;-1.58;55.97
76594;BME280;65482;50.240;14.302;2024-01-11T10:51:29;100809.66;;;-1.34;56.18
76594;BME280;65482;50.240;14.302;2024-01-11T10:54:42;100808.38;;;-0.97;55.33
76594;BME280;65482;50.240;14.302;2024-01-11T10:58:10;100805.38;;;-0.63;54.95
76594;BME280;65482;50.240;14.302;2024-01-11T11:00:50;100805.69;;;-0.48;53.75
76594;BME280;65482;50.240;14.302;2024-01-11T11:03:39;100789.41;;;-0.52;54.01
76594;BME280;65482;50.240;14.302;2024-01-11T11:35:34;100735.16;;;-0.56;55.49
76594;BME280;65482;50.240;14.302;2024-01-11T11:42:24;100734.34;;;-0.57;56.75
76594;BME280;65482;50.240;14.302;2024-01-11T11:45:49;100738.06;;;-0.42;56.58
76594;BME280;65482;50.240;14.302;2024-01-11T11:49:18;100724.78;;;-0.12;55.84
76594;BME280;65482;50.240;14.302;2024-01-11T11:53:48;100721.56;;;0.24;55.32
76594;BME280;65482;50.240;14.302;2024-01-11T12:00:53;100702.19;;;0.72;54.01
76594;BME280;65482;50.240;14.302;2024-01-11T12:08:02;100671.66;;;0.77;53.38
76594;BME280;65482;50.240;14.302;2024-01-11T12:11:11;100677.66;;;0.77;52.62
76594;BME280;65482;50.240;14.302;2024-01-11T12:14:12;100666.09;;;0.85;52.02
76594;BME280;65482;50.240;14.302;2024-01-11T12:16:43;100645.97;;;0.90;51.68
76594;BME280;65482;50.240;14.302;2024-01-11T12:19:19;100654.66;;;0.89;51.74
76594;BME280;65482;50.240;14.302;2024-01-11T12:24:44;100650.66;;;1.01;52.22
76594;BME280;65482;50.240;14.302;2024-01-11T12:27:45;100638.63;;;1.17;52.00
76594;BME280;65482;50.240;14.302;2024-01-11T12:30:26;100638.88;;;1.30;51.52
76594;BME280;65482;50.240;14.302;2024-01-11T12:33:05;100643.25;;;1.47;51.71
76594;BME280;65482;50.240;14.302;2024-01-11T12:35:33;100631.50;;;1.57;51.74
76594;BME280;65482;50.240;14.302;2024-01-11T12:38:04;100628.38;;;1.68;50.83
76594;BME280;65482;50.240;14.302;2024-01-11T12:40:37;100620.25;;;1.74;50.82
76594;BME280;65482;50.240;14.302;2024-01-11T12:43:03;100612.00;;;1.83;50.80
76594;BME280;65482;50.240;14.302;2024-01-11T12:45:34;100610.75;;;1.90;51.06
76594;BME280;65482;50.240;14.302;2024-01-11T12:48:00;100599.06;;;1.99;50.78
76594;BME280;65482;50.240;14.302;2024-01-11T12:50:29;100608.81;;;2.11;50.86
76594;BME280;65482;50.240;14.302;2024-01-11T12:53:06;100623.28;;;2.17;50.37
76594;BME280;65482;50.240;14.302;2024-01-11T12:58:33;100630.53;;;2.28;50.05
76594;BME280;65482;50.240;14.302;2024-01-11T13:01:14;100629.31;;;2.35;50.24
76594;BME280;65482;50.240;14.302;2024-01-11T13:04:11;100623.16;;;2.36;50.79
76594;BME280;65482;50.240;14.302;2024-01-11T13:07:13;100629.31;;;2.35;50.63
76594;BME280;65482;50.240;14.302;2024-01-11T13:09:45;100629.06;;;2.39;50.40
76594;BME280;65482;50.240;14.302;2024-01-11T13:12:12;100630.31;;;2.48;49.69
76594;BME280;65482;50.240;14.302;2024-01-11T13:14:38;100627.38;;;2.54;49.96
76594;BME280;65482;50.240;14.302;2024-01-11T13:17:06;100627.31;;;2.56;50.15
76594;BME280;65482;50.240;14.302;2024-01-11T13:19:33;100633.34;;;2.56;49.54
76594;BME280;65482;50.240;14.302;2024-01-11T13:22:06;100618.25;;;2.63;49.62
76594;BME280;65482;50.240;14.302;2024-01-11T13:24:31;100610.03;;;2.71;50.08
76594;BME280;65482;50.240;14.302;2024-01-11T13:26:57;100615.81;;;2.76;50.38
76594;BME280;65482;50.240;14.302;2024-01-11T13:29:22;100614.78;;;2.78;49.79
76594;BME280;65482;50.240;14.302;2024-01-11T13:31:48;100608.00;;;2.76;49.33
76594;BME280;65482;50.240;14.302;2024-01-11T13:34:13;100599.41;;;2.74;49.60
76594;BME280;65482;50.240;14.302;2024-01-11T13:36:39;100602.63;;;2.79;49.63
76594;BME280;65482;50.240;14.302;2024-01-11T13:39:04;100602.72;;;2.77;49.87
76594;BME280;65482;50.240;14.302;2024-01-11T13:41:33;100599.34;;;2.75;49.79
76594;BME280;65482;50.240;14.302;2024-01-11T13:43:59;100588.91;;;2.75;50.17
76594;BME280;65482;50.240;14.302;2024-01-11T13:46:24;100586.41;;;2.74;50.25
76594;BME280;65482;50.240;14.302;2024-01-11T13:48:50;100594.28;;;2.72;50.16
76594;BME280;65482;50.240;14.302;2024-01-11T13:51:15;100585.91;;;2.67;50.43
76594;BME280;65482;50.240;14.302;2024-01-11T13:53:41;100592.03;;;2.66;49.83
76594;BME280;65482;50.240;14.302;2024-01-11T13:56:07;100592.88;;;2.67;49.82
76594;BME280;65482;50.240;14.302;2024-01-11T13:58:32;100592.53;;;2.57;49.85
76594;BME280;65482;50.240;14.302;2024-01-11T14:00:59;100593.38;;;2.57;50.17
76594;BME280;65482;50.240;14.302;2024-01-11T14:03:24;100601.88;;;2.61;49.80
76594;BME280;65482;50.240;14.302;2024-01-11T14:05:50;100603.94;;;2.54;50.08
76594;BME280;65482;50.240;14.302;2024-01-11T14:08:16;100606.66;;;2.53;50.07
76594;BME280;65482;50.240;14.302;2024-01-11T14:10:42;100604.03;;;2.53;50.57
76594;BME280;65482;50.240;14.302;2024-01-11T14:13:07;100600.22;;;2.43;50.10
76594;BME280;65482;50.240;14.302;2024-01-11T14:15:36;100600.81;;;2.32;50.58
76594;BME280;65482;50.240;14.302;2024-01-11T14:18:02;100601.53;;;2.18;50.99
76594;BME280;65482;50.240;14.302;2024-01-11T14:20:29;100594.44;;;2.04;51.13
76594;BME280;65482;50.240;14.302;2024-01-11T14:22:56;100585.56;;;1.91;51.38
76594;BME280;65482;50.240;14.302;2024-01-11T14:25:23;100577.72;;;1.75;52.78